Aviation Digital Data Service (ADDS)

Output produced by METARs form (1400 UTC 27 June 2017)
found at http://aviationweather.gov/adds/metars/
 
KPHF 271120Z 2712/2812 23004KT P6SM BKN100 
     FM271400 34006KT P6SM BKN080 
     FM271600 04005KT P6SM BKN060 
     FM272300 15004KT P6SM SCT150